createdAt,value
2018-08-30T00:00:26.009Z,17.07
2018-08-30T00:01:26.030Z,17.06
2018-08-30T00:02:32.323Z,17.10
2018-08-30T00:03:26.089Z,17.09
2018-08-30T00:04:26.115Z,17.09
2018-08-30T00:05:26.144Z,16.95
2018-08-30T00:06:26.174Z,17.06
2018-08-30T00:07:26.202Z,17.12
2018-08-30T00:08:26.233Z,17.03
2018-08-30T00:09:26.263Z,17.00
2018-08-30T00:10:26.292Z,17.02
2018-08-30T00:11:26.320Z,16.97
2018-08-30T00:12:26.351Z,16.99
2018-08-30T00:13:26.382Z,16.95
2018-08-30T00:14:26.408Z,16.95
2018-08-30T00:15:26.437Z,16.91
2018-08-30T00:16:26.469Z,16.94
2018-08-30T00:17:26.496Z,16.97
2018-08-30T00:18:26.524Z,16.91
2018-08-30T00:19:26.554Z,16.97
2018-08-30T00:20:26.581Z,16.95
2018-08-30T00:21:26.615Z,16.94
2018-08-30T00:22:26.647Z,16.95
2018-08-30T00:23:26.671Z,16.95
2018-08-30T00:24:26.701Z,16.91
2018-08-30T00:25:26.732Z,16.90
2018-08-30T00:26:26.759Z,16.81
2018-08-30T00:27:26.789Z,16.82
2018-08-30T00:28:26.817Z,16.94
2018-08-30T00:29:26.848Z,16.81
2018-08-30T00:30:26.884Z,16.92
2018-08-30T00:31:26.906Z,16.91
2018-08-30T00:32:26.936Z,16.95
2018-08-30T00:33:26.965Z,16.91
2018-08-30T00:34:26.993Z,16.99
2018-08-30T00:35:27.020Z,16.97
2018-08-30T00:36:27.053Z,16.94
2018-08-30T00:37:27.077Z,16.99
2018-08-30T00:38:27.108Z,16.87
2018-08-30T00:39:27.137Z,16.95
2018-08-30T00:40:27.169Z,16.88
2018-08-30T00:41:27.288Z,16.94
2018-08-30T00:42:27.223Z,16.80
2018-08-30T00:43:27.255Z,16.66
2018-08-30T00:44:27.283Z,16.67
2018-08-30T00:45:27.312Z,16.65
2018-08-30T00:46:27.345Z,16.65
2018-08-30T00:47:27.370Z,16.54
2018-08-30T00:48:27.403Z,16.49
2018-08-30T00:49:27.432Z,16.44
2018-08-30T00:50:27.458Z,16.42
2018-08-30T00:51:27.488Z,16.27
2018-08-30T00:52:27.517Z,16.30
2018-08-30T00:53:27.547Z,16.33
2018-08-30T00:54:27.575Z,16.18
2018-08-30T00:55:27.605Z,16.17
2018-08-30T00:56:27.633Z,16.18
2018-08-30T00:57:27.662Z,16.17
2018-08-30T00:58:27.691Z,16.11
2018-08-30T00:59:27.718Z,16.22
2018-08-30T01:00:27.748Z,16.16
2018-08-30T01:01:27.774Z,16.17
2018-08-30T01:02:27.805Z,16.13
2018-08-30T01:03:27.834Z,16.14
2018-08-30T01:04:27.865Z,16.14
2018-08-30T01:05:27.896Z,16.08
2018-08-30T01:06:27.920Z,16.17
2018-08-30T01:07:27.950Z,16.17
2018-08-30T01:08:27.978Z,16.06
2018-08-30T01:09:28.008Z,16.02
2018-08-30T01:10:28.037Z,16.16
2018-08-30T01:11:28.064Z,16.13
2018-08-30T01:12:28.096Z,16.22
2018-08-30T01:13:28.126Z,16.14
2018-08-30T01:14:28.155Z,16.07
2018-08-30T01:15:28.180Z,16.10
2018-08-30T01:16:28.211Z,16.04
2018-08-30T01:17:28.240Z,15.96
2018-08-30T01:18:28.267Z,16.02
2018-08-30T01:19:28.297Z,16.08
2018-08-30T01:20:28.327Z,16.07
2018-08-30T01:21:28.359Z,16.04
2018-08-30T01:22:28.386Z,16.00
2018-08-30T01:23:28.412Z,16.00
2018-08-30T01:24:28.443Z,15.98
2018-08-30T01:25:28.473Z,16.02
2018-08-30T01:26:28.499Z,16.04
2018-08-30T01:27:28.527Z,16.06
2018-08-30T01:28:28.558Z,16.00
2018-08-30T01:29:28.589Z,15.93
2018-08-30T01:30:28.613Z,16.00
2018-08-30T01:31:28.642Z,15.89
2018-08-30T01:32:28.675Z,15.95
2018-08-30T01:33:28.702Z,15.98
2018-08-30T01:34:28.729Z,15.95
2018-08-30T01:35:28.763Z,16.02
2018-08-30T01:36:28.787Z,15.96
2018-08-30T01:37:28.818Z,16.00
2018-08-30T01:38:28.848Z,15.98
2018-08-30T01:39:28.877Z,15.96
2018-08-30T01:40:28.906Z,15.98
2018-08-30T01:41:28.931Z,15.99
2018-08-30T01:42:28.960Z,16.04
2018-08-30T01:43:28.992Z,15.99
2018-08-30T01:44:29.023Z,16.04
2018-08-30T01:45:29.051Z,15.99
2018-08-30T01:46:29.077Z,15.98
2018-08-30T01:47:29.108Z,15.92
2018-08-30T01:48:29.135Z,16.08
2018-08-30T01:49:29.163Z,16.00
2018-08-30T01:50:29.193Z,15.98
2018-08-30T01:51:29.222Z,16.04
2018-08-30T01:52:29.252Z,15.96
2018-08-30T01:53:29.283Z,16.07
2018-08-30T01:54:29.311Z,15.93
2018-08-30T01:55:29.341Z,16.02
2018-08-30T01:56:29.371Z,15.98
2018-08-30T01:57:29.395Z,16.17
2018-08-30T01:58:29.428Z,16.00
2018-08-30T01:59:29.454Z,16.08
2018-08-30T02:00:29.484Z,15.98
2018-08-30T02:01:29.511Z,16.02
2018-08-30T02:02:29.539Z,16.04
2018-08-30T02:03:29.573Z,16.04
2018-08-30T02:04:29.599Z,16.08
2018-08-30T02:05:29.628Z,16.08
2018-08-30T02:06:29.659Z,16.06
2018-08-30T02:07:29.690Z,16.08
2018-08-30T02:08:29.715Z,16.07
2018-08-30T02:09:29.747Z,16.00
2018-08-30T02:10:29.773Z,15.98
2018-08-30T02:11:29.803Z,16.08
2018-08-30T02:12:29.832Z,16.04
2018-08-30T02:13:29.862Z,16.17
2018-08-30T02:14:29.886Z,16.14
2018-08-30T02:15:29.917Z,16.13
2018-08-30T02:16:29.949Z,16.17
2018-08-30T02:17:29.975Z,16.17
2018-08-30T02:18:30.003Z,16.16
2018-08-30T02:19:30.036Z,16.18
2018-08-30T02:20:30.059Z,16.07
2018-08-30T02:21:30.093Z,16.07
2018-08-30T02:22:30.118Z,16.13
2018-08-30T02:23:30.151Z,16.18
2018-08-30T02:24:30.177Z,16.16
2018-08-30T02:25:30.204Z,16.18
2018-08-30T02:26:30.237Z,16.17
2018-08-30T02:27:30.265Z,16.14
2018-08-30T02:28:30.293Z,16.16
2018-08-30T02:29:30.322Z,16.10
2018-08-30T02:30:30.350Z,16.14
2018-08-30T02:31:30.385Z,16.18
2018-08-30T02:32:30.408Z,16.22
2018-08-30T02:33:30.441Z,16.18
2018-08-30T02:34:30.468Z,16.29
2018-08-30T02:35:30.495Z,16.18
2018-08-30T02:36:30.529Z,16.26
2018-08-30T02:37:30.553Z,16.22
2018-08-30T02:38:30.584Z,16.25
2018-08-30T02:39:30.613Z,16.33
2018-08-30T02:40:30.641Z,16.30
2018-08-30T02:41:30.671Z,16.33
2018-08-30T02:42:30.702Z,16.26
2018-08-30T02:43:30.729Z,16.17
2018-08-30T02:44:30.754Z,16.26
2018-08-30T02:45:30.786Z,16.32
2018-08-30T02:46:30.816Z,16.26
2018-08-30T02:47:30.843Z,16.30
2018-08-30T02:48:30.874Z,16.17
2018-08-30T02:49:30.902Z,16.29
2018-08-30T02:50:30.932Z,16.27
2018-08-30T02:51:30.962Z,16.30
2018-08-30T02:52:30.989Z,16.29
2018-08-30T02:53:31.020Z,16.40
2018-08-30T02:54:31.045Z,16.42
2018-08-30T02:55:31.075Z,16.40
2018-08-30T02:56:31.108Z,16.40
2018-08-30T02:57:31.136Z,16.27
2018-08-30T02:58:31.163Z,16.29
2018-08-30T02:59:31.192Z,16.25
2018-08-30T03:00:31.221Z,16.17
2018-08-30T03:01:31.252Z,16.22
2018-08-30T03:02:31.278Z,16.17
2018-08-30T03:03:31.309Z,16.16
2018-08-30T03:04:31.337Z,16.22
2018-08-30T03:05:31.364Z,16.21
2018-08-30T03:06:31.394Z,16.18
2018-08-30T03:07:31.426Z,16.18
2018-08-30T03:08:31.452Z,16.18
2018-08-30T03:09:31.482Z,16.22
2018-08-30T03:10:31.510Z,16.21
2018-08-30T03:11:31.539Z,16.32
2018-08-30T03:12:31.571Z,16.25
2018-08-30T03:13:31.597Z,16.27
2018-08-30T03:14:31.628Z,16.26
2018-08-30T03:15:31.655Z,16.27
2018-08-30T03:16:31.684Z,16.21
2018-08-30T03:17:31.714Z,16.21
2018-08-30T03:18:31.743Z,16.17
2018-08-30T03:19:31.774Z,16.25
2018-08-30T03:20:31.799Z,16.17
2018-08-30T03:21:31.834Z,16.26
2018-08-30T03:22:31.861Z,16.17
2018-08-30T03:23:31.888Z,16.26
2018-08-30T03:24:31.917Z,16.26
2018-08-30T03:25:31.957Z,16.21
2018-08-30T03:26:31.973Z,16.30
2018-08-30T03:27:32.003Z,16.32
2018-08-30T03:28:32.033Z,16.29
2018-08-30T03:29:32.062Z,16.27
2018-08-30T03:30:32.104Z,16.32
2018-08-30T03:31:32.119Z,16.29
2018-08-30T03:32:32.220Z,16.22
2018-08-30T03:33:32.179Z,16.22
2018-08-30T03:34:32.204Z,16.22
2018-08-30T03:35:32.235Z,16.21
2018-08-30T03:36:32.264Z,16.18
2018-08-30T03:37:32.293Z,16.18
2018-08-30T03:38:32.324Z,16.25
2018-08-30T03:39:32.352Z,16.17
2018-08-30T03:40:32.383Z,16.16
2018-08-30T03:41:32.410Z,16.16
2018-08-30T03:42:32.436Z,16.22
2018-08-30T03:43:32.470Z,16.18
2018-08-30T03:44:32.496Z,16.21
2018-08-30T03:45:32.530Z,16.21
2018-08-30T03:46:32.555Z,16.29
2018-08-30T03:47:32.583Z,16.27
2018-08-30T03:48:32.614Z,16.22
2018-08-30T03:49:32.643Z,16.21
2018-08-30T03:50:32.669Z,16.16
2018-08-30T03:51:32.700Z,16.25
2018-08-30T03:52:32.727Z,16.21
2018-08-30T03:53:32.756Z,16.27
2018-08-30T03:54:32.785Z,16.22
2018-08-30T03:55:32.812Z,16.25
2018-08-30T03:56:32.846Z,16.21
2018-08-30T03:57:32.872Z,16.26
2018-08-30T03:58:32.906Z,16.16
2018-08-30T03:59:32.933Z,16.22
2018-08-30T04:00:32.959Z,16.16
2018-08-30T04:01:32.988Z,16.21
2018-08-30T04:02:33.016Z,16.21
2018-08-30T04:03:33.046Z,16.14
2018-08-30T04:04:33.074Z,16.21
2018-08-30T04:05:33.101Z,16.10
2018-08-30T04:06:33.130Z,16.13
2018-08-30T04:07:33.163Z,16.18
2018-08-30T04:08:33.194Z,16.16
2018-08-30T04:09:33.221Z,16.17
2018-08-30T04:10:33.248Z,16.18
2018-08-30T04:11:33.276Z,16.10
2018-08-30T04:12:33.304Z,16.17
2018-08-30T04:13:33.394Z,16.16
2018-08-30T04:14:33.368Z,16.13
2018-08-30T04:15:33.392Z,16.18
2018-08-30T04:16:33.421Z,16.14
2018-08-30T04:17:33.453Z,16.21
2018-08-30T04:18:33.481Z,16.22
2018-08-30T04:19:33.507Z,16.25
2018-08-30T04:20:33.536Z,16.29
2018-08-30T04:21:33.566Z,16.22
2018-08-30T04:22:33.627Z,16.17
2018-08-30T04:23:33.626Z,16.32
2018-08-30T04:24:33.653Z,16.30
2018-08-30T04:25:33.685Z,16.27
2018-08-30T04:26:33.709Z,16.37
2018-08-30T04:27:33.744Z,16.34
2018-08-30T04:28:33.768Z,16.33
2018-08-30T04:29:33.797Z,16.29
2018-08-30T04:30:33.829Z,16.26
2018-08-30T04:31:33.911Z,16.33
2018-08-30T04:32:33.883Z,16.27
2018-08-30T04:33:33.969Z,16.30
2018-08-30T04:34:33.941Z,16.32
2018-08-30T04:35:33.971Z,16.25
2018-08-30T04:36:34.002Z,16.27
2018-08-30T04:37:34.031Z,16.27
2018-08-30T04:38:34.058Z,16.26
2018-08-30T04:39:34.087Z,16.29
2018-08-30T04:40:34.118Z,16.33
2018-08-30T04:41:34.146Z,16.30
2018-08-30T04:42:34.181Z,16.26
2018-08-30T04:43:34.202Z,16.21
2018-08-30T04:44:34.234Z,16.17
2018-08-30T04:45:34.262Z,16.26
2018-08-30T04:46:34.291Z,16.25
2018-08-30T04:47:34.318Z,16.26
2018-08-30T04:48:34.350Z,16.33
2018-08-30T04:49:34.379Z,16.22
2018-08-30T04:50:34.528Z,16.21
2018-08-30T04:51:34.437Z,16.21
2018-08-30T04:52:34.464Z,16.25
2018-08-30T04:53:34.491Z,16.25
2018-08-30T04:54:34.520Z,16.25
2018-08-30T04:55:34.552Z,16.26
2018-08-30T04:56:34.580Z,16.27
2018-08-30T04:57:34.608Z,16.17
2018-08-30T04:58:34.636Z,16.25
2018-08-30T04:59:34.668Z,16.32
2018-08-30T05:00:34.697Z,16.27
2018-08-30T05:01:34.778Z,16.34
2018-08-30T05:02:34.752Z,16.32
2018-08-30T05:03:34.782Z,16.36
2018-08-30T05:04:34.812Z,16.27
2018-08-30T05:05:34.844Z,16.22
2018-08-30T05:06:34.868Z,16.17
2018-08-30T05:07:34.895Z,16.30
2018-08-30T05:08:34.926Z,16.33
2018-08-30T05:09:34.956Z,16.33
2018-08-30T05:10:34.985Z,16.29
2018-08-30T05:11:35.015Z,16.26
2018-08-30T05:12:35.042Z,16.34
2018-08-30T05:13:35.072Z,16.30
2018-08-30T05:14:35.107Z,16.30
2018-08-30T05:15:35.132Z,16.32
2018-08-30T05:16:35.332Z,16.39
2018-08-30T05:17:35.190Z,16.44
2018-08-30T05:18:35.216Z,16.36
2018-08-30T05:19:35.249Z,16.42
2018-08-30T05:20:35.278Z,16.44
2018-08-30T05:21:35.306Z,16.39
2018-08-30T05:22:35.333Z,16.39
2018-08-30T05:23:35.364Z,16.44
2018-08-30T05:24:35.393Z,16.44
2018-08-30T05:25:35.423Z,16.45
2018-08-30T05:26:35.451Z,16.57
2018-08-30T05:27:35.524Z,16.54
2018-08-30T05:28:35.509Z,16.48
2018-08-30T05:29:35.535Z,16.51
2018-08-30T05:30:35.567Z,16.45
2018-08-30T05:31:35.596Z,16.44
2018-08-30T05:32:35.624Z,16.48
2018-08-30T05:33:35.653Z,16.49
2018-08-30T05:34:35.681Z,16.51
2018-08-30T05:35:35.765Z,16.49
2018-08-30T05:36:35.743Z,16.48
2018-08-30T05:37:35.771Z,16.54
2018-08-30T05:38:35.798Z,16.52
2018-08-30T05:39:35.829Z,16.52
2018-08-30T05:40:35.855Z,16.49
2018-08-30T05:41:35.884Z,16.48
2018-08-30T05:42:35.911Z,16.51
2018-08-30T05:43:35.944Z,16.52
2018-08-30T05:44:36.005Z,16.55
2018-08-30T05:45:35.999Z,16.57
2018-08-30T05:46:36.028Z,16.49
2018-08-30T05:47:36.057Z,16.55
2018-08-30T05:48:36.085Z,16.54
2018-08-30T05:49:36.115Z,16.54
2018-08-30T05:50:36.229Z,16.54
2018-08-30T05:51:36.177Z,16.57
2018-08-30T05:52:36.207Z,16.48
2018-08-30T05:53:36.232Z,16.54
2018-08-30T05:54:36.263Z,16.55
2018-08-30T05:55:36.290Z,16.58
2018-08-30T05:56:36.321Z,16.59
2018-08-30T05:57:36.352Z,16.59
2018-08-30T05:58:36.375Z,16.55
2018-08-30T05:59:36.408Z,16.67
2018-08-30T06:00:36.436Z,16.63
2018-08-30T06:01:36.463Z,16.66
2018-08-30T06:02:36.493Z,16.63
2018-08-30T06:03:36.524Z,16.66
2018-08-30T06:04:36.555Z,16.65
2018-08-30T06:05:36.580Z,16.69
2018-08-30T06:06:36.608Z,16.76
2018-08-30T06:07:36.638Z,16.74
2018-08-30T06:08:36.666Z,16.77
2018-08-30T06:09:36.697Z,16.80
2018-08-30T06:10:36.730Z,16.73
2018-08-30T06:11:36.756Z,16.73
2018-08-30T06:12:36.783Z,16.74
2018-08-30T06:13:36.823Z,16.80
2018-08-30T06:14:36.844Z,16.74
2018-08-30T06:15:36.869Z,16.77
2018-08-30T06:16:36.897Z,16.77
2018-08-30T06:17:36.931Z,16.73
2018-08-30T06:18:36.958Z,16.66
2018-08-30T06:19:36.984Z,16.74
2018-08-30T06:20:37.016Z,16.74
2018-08-30T06:21:37.042Z,16.81
2018-08-30T06:22:37.070Z,16.82
2018-08-30T06:23:37.100Z,16.80
2018-08-30T06:24:37.131Z,16.81
2018-08-30T06:25:37.162Z,16.97
2018-08-30T06:26:37.214Z,16.95
2018-08-30T06:27:37.221Z,16.92
2018-08-30T06:28:37.245Z,16.88
2018-08-30T06:29:37.276Z,16.91
2018-08-30T06:30:37.304Z,16.91
2018-08-30T06:31:37.336Z,16.81
2018-08-30T06:32:37.384Z,16.87
2018-08-30T06:33:37.402Z,16.84
2018-08-30T06:34:37.474Z,16.88
2018-08-30T06:35:37.452Z,16.95
2018-08-30T06:36:37.480Z,16.92
2018-08-30T06:37:37.509Z,16.91
2018-08-30T06:38:37.556Z,16.94
2018-08-30T06:39:37.568Z,16.91
2018-08-30T06:40:37.599Z,16.87
2018-08-30T06:41:37.625Z,16.95
2018-08-30T06:42:37.655Z,16.88
2018-08-30T06:43:37.686Z,16.95
2018-08-30T06:44:37.717Z,16.94
2018-08-30T06:45:37.745Z,16.90
2018-08-30T06:46:37.771Z,16.77
2018-08-30T06:47:37.799Z,16.92
2018-08-30T06:48:37.876Z,16.95
2018-08-30T06:49:37.858Z,16.94
2018-08-30T06:50:37.887Z,16.95
2018-08-30T06:51:37.916Z,16.94
2018-08-30T06:52:37.948Z,16.95
2018-08-30T06:53:37.973Z,16.94
2018-08-30T06:54:38.005Z,16.95
2018-08-30T06:55:38.033Z,17.06
2018-08-30T06:56:38.062Z,17.00
2018-08-30T06:57:38.091Z,17.06
2018-08-30T06:58:38.120Z,17.05
2018-08-30T06:59:38.150Z,17.09
2018-08-30T07:00:38.179Z,17.10
2018-08-30T07:01:38.209Z,17.07
2018-08-30T07:02:38.240Z,17.09
2018-08-30T07:03:38.265Z,17.07
2018-08-30T07:04:38.295Z,17.13
2018-08-30T07:05:38.328Z,16.94
2018-08-30T07:06:38.361Z,17.07
2018-08-30T07:07:38.382Z,17.02
2018-08-30T07:08:38.413Z,17.10
2018-08-30T07:09:38.444Z,16.92
2018-08-30T07:10:38.470Z,16.97
2018-08-30T07:11:38.502Z,16.92
2018-08-30T07:12:38.530Z,16.92
2018-08-30T07:13:38.557Z,17.13
2018-08-30T07:14:38.676Z,17.10
2018-08-30T07:15:38.616Z,17.12
2018-08-30T07:16:38.700Z,17.12
2018-08-30T07:17:38.678Z,17.12
2018-08-30T07:18:38.707Z,17.09
2018-08-30T07:19:38.736Z,17.21
2018-08-30T07:20:38.766Z,17.25
2018-08-30T07:21:38.792Z,17.21
2018-08-30T07:22:38.822Z,17.30
2018-08-30T07:23:38.855Z,17.30
2018-08-30T07:24:38.884Z,17.31
2018-08-30T07:25:38.909Z,17.31
2018-08-30T07:26:38.942Z,17.30
2018-08-30T07:27:38.967Z,17.43
2018-08-30T07:28:39.042Z,17.62
2018-08-30T07:29:39.026Z,17.65
2018-08-30T07:30:39.054Z,17.79
2018-08-30T07:31:39.087Z,17.94
2018-08-30T07:32:39.117Z,18.01
2018-08-30T07:33:39.141Z,17.99
2018-08-30T07:34:39.227Z,18.02
2018-08-30T07:35:39.204Z,18.10
2018-08-30T07:36:39.235Z,18.24
2018-08-30T07:37:39.264Z,18.20
2018-08-30T07:38:39.290Z,18.16
2018-08-30T07:39:39.317Z,18.26
2018-08-30T07:45:39.504Z,19.56
2018-08-30T07:46:39.531Z,19.65
2018-08-30T07:47:39.557Z,19.63
2018-08-30T07:48:39.600Z,19.52
2018-08-30T07:49:39.619Z,20.08
2018-08-30T07:50:39.647Z,20.44
2018-08-30T07:51:39.679Z,20.91
2018-08-30T07:52:39.710Z,21.31
2018-08-30T07:53:39.738Z,21.36
2018-08-30T07:54:39.885Z,21.38
2018-08-30T07:55:39.801Z,21.62
2018-08-30T07:56:39.832Z,21.96
2018-08-30T07:57:39.865Z,21.96
2018-08-30T07:58:39.894Z,22.29
2018-08-30T07:59:39.928Z,21.97
2018-08-30T08:00:39.956Z,21.67
2018-08-30T08:01:39.991Z,21.52
2018-08-30T08:02:40.022Z,21.09
2018-08-30T08:03:40.054Z,21.19
2018-08-30T08:04:40.088Z,20.58
2018-08-30T08:05:40.124Z,20.71
2018-08-30T08:06:40.151Z,20.54
2018-08-30T08:07:40.186Z,20.04
2018-08-30T08:08:40.216Z,20.02
2018-08-30T08:09:40.251Z,20.72
2018-08-30T08:10:40.282Z,20.72
2018-08-30T08:11:40.315Z,20.19
2018-08-30T08:12:40.405Z,20.35
2018-08-30T08:13:40.383Z,20.02
2018-08-30T08:14:40.414Z,19.72
2018-08-30T08:15:40.449Z,20.79
2018-08-30T08:16:40.479Z,21.18
2018-08-30T08:17:40.512Z,21.15
2018-08-30T08:18:40.544Z,21.55
2018-08-30T08:19:40.581Z,22.24
2018-08-30T08:20:40.611Z,21.93
2018-08-30T08:21:40.645Z,21.30
2018-08-30T08:22:40.677Z,21.25
2018-08-30T08:23:40.711Z,20.56
2018-08-30T08:24:40.747Z,20.46
2018-08-30T08:25:40.777Z,20.64
2018-08-30T08:26:40.814Z,20.34
2018-08-30T08:27:40.844Z,20.30
2018-08-30T08:28:40.881Z,20.04
2018-08-30T08:29:40.915Z,20.40
2018-08-30T08:30:40.947Z,20.34
2018-08-30T08:31:40.981Z,20.79
2018-08-30T08:32:41.015Z,21.15
2018-08-30T08:33:41.045Z,22.11
2018-08-30T08:34:41.082Z,21.80
2018-08-30T08:35:41.112Z,22.30
2018-08-30T08:36:41.145Z,22.59
2018-08-30T08:37:41.182Z,21.89
2018-08-30T08:38:41.214Z,21.25
2018-08-30T08:39:41.245Z,22.27
2018-08-30T08:40:41.283Z,23.07
2018-08-30T08:41:41.315Z,22.66
2018-08-30T08:42:41.348Z,22.66
2018-08-30T08:43:41.425Z,21.83
2018-08-30T08:44:41.421Z,22.36
2018-08-30T08:45:42.260Z,22.67
2018-08-30T08:46:41.485Z,22.07
2018-08-30T08:47:41.536Z,22.46
2018-08-30T08:48:41.549Z,22.75
2018-08-30T08:49:41.586Z,23.01
2018-08-30T08:50:41.619Z,22.30
2018-08-30T08:51:41.653Z,22.60
2018-08-30T08:52:41.689Z,22.54
2018-08-30T08:53:41.760Z,23.44
2018-08-30T08:54:41.759Z,23.84
2018-08-30T08:55:41.794Z,24.03
2018-08-30T08:56:41.826Z,24.22
2018-08-30T08:57:41.862Z,24.66
2018-08-30T08:58:41.908Z,24.32
2018-08-30T08:59:41.933Z,24.67
2018-08-30T09:00:41.969Z,24.04
2018-08-30T09:01:42.004Z,24.11
2018-08-30T09:02:42.037Z,24.26
2018-08-30T09:03:42.076Z,24.32
2018-08-30T09:04:42.109Z,23.74
2018-08-30T09:05:42.147Z,23.85
2018-08-30T09:06:42.183Z,23.79
2018-08-30T09:07:42.332Z,23.41
2018-08-30T09:08:42.255Z,23.45
2018-08-30T09:09:42.288Z,23.53
2018-08-30T09:10:42.324Z,23.79
2018-08-30T09:11:42.363Z,24.11
2018-08-30T09:12:42.405Z,24.46
2018-08-30T09:13:42.437Z,24.85
2018-08-30T09:14:42.472Z,25.02
2018-08-30T09:15:42.509Z,24.67
2018-08-30T09:16:42.544Z,24.58
2018-08-30T09:17:42.611Z,25.11
2018-08-30T09:18:42.618Z,25.11
2018-08-30T09:19:42.656Z,25.86
2018-08-30T09:20:42.695Z,26.35
2018-08-30T09:21:42.732Z,25.97
2018-08-30T09:22:42.767Z,25.24
2018-08-30T09:23:42.801Z,24.66
2018-08-30T09:24:42.838Z,23.62
2018-08-30T09:25:42.876Z,23.09
2018-08-30T09:26:42.962Z,22.94
2018-08-30T09:27:42.953Z,23.28
2018-08-30T09:28:42.989Z,22.57
2018-08-30T09:29:43.028Z,21.97
2018-08-30T09:30:43.062Z,21.66
2018-08-30T09:31:43.099Z,22.57
2018-08-30T09:32:43.135Z,22.97
2018-08-30T09:33:43.218Z,23.09
2018-08-30T09:34:43.206Z,22.70
2018-08-30T09:35:43.244Z,23.26
2018-08-30T09:36:43.282Z,22.64
2018-08-30T09:37:43.318Z,22.05
2018-08-30T09:38:43.351Z,21.96
2018-08-30T09:39:43.390Z,22.24
2018-08-30T09:40:43.423Z,21.94
2018-08-30T09:41:43.459Z,22.08
2018-08-30T09:42:43.497Z,22.00
2018-08-30T09:43:43.548Z,21.82
2018-08-30T09:44:43.567Z,21.68
2018-08-30T09:45:43.603Z,21.99
2018-08-30T09:46:43.637Z,21.86
2018-08-30T09:47:43.670Z,21.61
2018-08-30T09:48:43.707Z,21.94
2018-08-30T09:49:43.792Z,21.70
2018-08-30T09:50:43.778Z,21.62
2018-08-30T09:51:43.809Z,21.34
2018-08-30T09:52:43.845Z,21.08
2018-08-30T09:53:43.880Z,21.11
2018-08-30T09:54:43.909Z,20.81
2018-08-30T09:55:44.033Z,20.83
2018-08-30T09:56:44.046Z,20.68
2018-08-30T09:57:44.014Z,20.48
2018-08-30T09:58:44.044Z,20.41
2018-08-30T09:59:44.078Z,20.42
2018-08-30T10:00:44.113Z,20.35
2018-08-30T10:01:44.146Z,20.30
2018-08-30T10:02:44.181Z,21.33
2018-08-30T10:03:44.266Z,21.70
2018-08-30T10:04:44.284Z,22.08
2018-08-30T10:05:44.278Z,21.64
2018-08-30T10:06:44.313Z,21.80
2018-08-30T10:07:44.350Z,22.88
2018-08-30T10:09:26.932Z,23.92
2018-08-30T10:10:26.966Z,24.26
2018-08-30T10:11:26.998Z,23.29
2018-08-30T10:12:27.032Z,22.60
2018-08-30T10:13:27.077Z,22.18
2018-08-30T10:14:27.097Z,21.90
2018-08-30T10:15:27.940Z,21.53
2018-08-30T10:16:27.173Z,21.16
2018-08-30T10:17:27.199Z,21.09
2018-08-30T10:18:27.234Z,20.81
2018-08-30T10:19:27.267Z,21.90
2018-08-30T10:20:27.300Z,23.01
2018-08-30T10:21:27.372Z,23.70
2018-08-30T10:22:27.369Z,24.52
2018-08-30T10:23:27.403Z,24.92
2018-08-30T10:24:27.434Z,25.54
2018-08-30T10:25:27.548Z,26.09
2018-08-30T10:26:27.501Z,25.60
2018-08-30T10:27:27.533Z,25.78
2018-08-30T10:28:27.569Z,25.70
2018-08-30T10:29:27.624Z,26.15
2018-08-30T10:30:27.638Z,25.94
2018-08-30T10:31:27.740Z,24.83
2018-08-30T10:32:27.709Z,23.57
2018-08-30T10:33:27.741Z,24.21
2018-08-30T10:34:27.775Z,24.49
2018-08-30T10:35:27.813Z,23.78
2018-08-30T10:36:27.847Z,23.64
2018-08-30T10:37:27.883Z,24.90
2018-08-30T10:38:27.915Z,25.91
2018-08-30T10:39:27.952Z,25.86
2018-08-30T10:40:27.989Z,25.88
2018-08-30T10:41:28.024Z,25.67
2018-08-30T10:42:28.060Z,24.18
2018-08-30T10:43:28.098Z,23.53
2018-08-30T10:44:28.131Z,23.16
2018-08-30T10:45:28.168Z,22.64
2018-08-30T10:46:28.201Z,22.31
2018-08-30T10:47:28.237Z,22.22
2018-08-30T10:48:28.276Z,22.57
2018-08-30T10:49:28.433Z,24.04
2018-08-30T10:50:28.346Z,25.00
2018-08-30T10:51:28.386Z,25.76
2018-08-30T10:52:28.415Z,25.78
2018-08-30T10:53:28.454Z,25.24
2018-08-30T10:54:28.493Z,25.44
2018-08-30T10:55:28.527Z,25.47
2018-08-30T10:56:28.559Z,26.16
2018-08-30T10:57:28.601Z,26.42
2018-08-30T10:58:28.635Z,25.17
2018-08-30T10:59:28.668Z,24.22
2018-08-30T11:00:28.705Z,24.44
2018-08-30T11:01:28.743Z,25.56
2018-08-30T11:02:28.778Z,26.68
2018-08-30T11:03:28.816Z,27.26
2018-08-30T11:04:28.907Z,27.37
2018-08-30T11:05:28.888Z,26.82
2018-08-30T11:06:28.924Z,27.19
2018-08-30T11:07:28.960Z,26.74
2018-08-30T11:08:28.997Z,26.82
2018-08-30T11:09:29.037Z,26.32
2018-08-30T11:10:29.074Z,26.94
2018-08-30T11:11:29.111Z,25.94
2018-08-30T11:12:29.145Z,25.08
2018-08-30T11:13:29.253Z,25.54
2018-08-30T11:14:29.223Z,25.49
2018-08-30T11:15:29.259Z,24.94
2018-08-30T11:16:29.297Z,25.67
2018-08-30T11:17:29.331Z,24.54
2018-08-30T11:18:29.372Z,24.14
2018-08-30T11:19:29.494Z,24.64
2018-08-30T11:20:29.444Z,24.02
2018-08-30T11:21:29.484Z,24.02
2018-08-30T11:22:29.518Z,23.62
2018-08-30T11:23:29.555Z,24.66
2018-08-30T11:24:29.598Z,25.49
2018-08-30T11:25:29.647Z,26.17
2018-08-30T11:26:29.666Z,26.74
2018-08-30T11:27:29.702Z,27.21
2018-08-30T11:28:29.741Z,27.06
2018-08-30T11:29:29.779Z,25.60
2018-08-30T11:30:29.815Z,24.83
2018-08-30T11:31:29.855Z,24.82
2018-08-30T11:32:29.887Z,25.47
2018-08-30T11:33:29.925Z,25.66
2018-08-30T11:34:29.962Z,25.49
2018-08-30T11:35:30.001Z,25.29
2018-08-30T11:36:30.041Z,24.70
2018-08-30T11:37:30.118Z,24.77
2018-08-30T11:38:30.109Z,24.22
2018-08-30T11:39:30.147Z,23.67
2018-08-30T11:40:30.182Z,23.41
2018-08-30T11:41:30.515Z,23.28
2018-08-30T11:42:30.260Z,23.42
2018-08-30T11:43:30.367Z,23.75
2018-08-30T11:44:30.331Z,23.41
2018-08-30T11:45:30.365Z,23.28
2018-08-30T11:46:30.402Z,23.01
2018-08-30T11:47:30.440Z,22.54
2018-08-30T11:48:30.473Z,22.46
2018-08-30T11:49:30.509Z,22.57
2018-08-30T11:50:30.547Z,22.48
2018-08-30T11:51:30.584Z,22.57
2018-08-30T11:52:30.637Z,22.60
2018-08-30T11:53:30.650Z,22.49
2018-08-30T11:54:30.686Z,22.45
2018-08-30T11:55:30.724Z,22.34
2018-08-30T11:56:30.755Z,22.29
2018-08-30T11:57:30.794Z,22.27
2018-08-30T11:58:30.826Z,22.30
2018-08-30T11:59:30.858Z,22.48
2018-08-30T12:00:30.893Z,22.59
2018-08-30T12:01:30.928Z,23.01
2018-08-30T12:02:30.962Z,22.96
2018-08-30T12:03:30.994Z,22.92
2018-08-30T12:04:31.027Z,22.89
2018-08-30T12:05:31.061Z,22.91
2018-08-30T12:06:31.096Z,22.99
2018-08-30T12:07:31.131Z,23.07
2018-08-30T12:08:31.257Z,23.42
2018-08-30T12:09:31.197Z,23.78
2018-08-30T12:10:31.379Z,23.96
2018-08-30T12:11:31.318Z,24.04
2018-08-30T12:12:31.299Z,24.36
2018-08-30T12:13:31.332Z,25.26
2018-08-30T12:14:31.366Z,25.07
2018-08-30T12:15:31.402Z,25.22
2018-08-30T12:16:31.434Z,25.24
2018-08-30T12:17:31.497Z,25.44
2018-08-30T12:18:31.503Z,25.11
2018-08-30T12:19:31.584Z,24.92
2018-08-30T12:20:31.654Z,24.32
2018-08-30T12:21:31.605Z,24.14
2018-08-30T12:22:31.638Z,24.03
2018-08-30T12:23:31.675Z,23.53
2018-08-30T12:24:31.705Z,23.40
2018-08-30T12:25:31.741Z,23.97
2018-08-30T12:26:31.778Z,24.04
2018-08-30T12:27:31.814Z,24.00
2018-08-30T12:28:31.896Z,25.33
2018-08-30T12:29:31.877Z,25.93
2018-08-30T12:30:31.971Z,26.30
2018-08-30T12:31:32.018Z,26.52
2018-08-30T12:32:32.066Z,26.69
2018-08-30T12:33:32.022Z,27.13
2018-08-30T12:34:32.135Z,27.19
2018-08-30T12:35:32.153Z,27.00
2018-08-30T12:36:32.152Z,26.11
2018-08-30T12:37:32.218Z,25.85
2018-08-30T12:38:32.191Z,25.42
2018-08-30T12:39:32.227Z,25.27
2018-08-30T12:40:32.372Z,25.44
2018-08-30T12:41:32.328Z,25.11
2018-08-30T12:42:32.359Z,25.01
2018-08-30T12:43:32.587Z,24.58
2018-08-30T12:44:32.420Z,24.19
2018-08-30T12:45:32.441Z,24.48
2018-08-30T12:46:32.584Z,23.99
2018-08-30T12:47:32.533Z,23.78
2018-08-30T12:48:32.597Z,23.82
2018-08-30T12:49:32.582Z,23.47
2018-08-30T12:50:32.774Z,23.21
2018-08-30T12:51:32.917Z,23.06
2018-08-30T12:52:32.807Z,23.06
2018-08-30T12:53:32.832Z,23.03
2018-08-30T12:54:32.865Z,22.73
2018-08-30T12:55:32.838Z,22.31
2018-08-30T12:56:32.928Z,22.38
2018-08-30T12:57:33.005Z,22.26
2018-08-30T12:58:33.020Z,22.22